createdAt,value
2019-03-31T00:00:32.659Z,181.10
2019-03-31T00:03:02.221Z,175.53
2019-03-31T00:05:31.696Z,186.17
2019-03-31T00:08:01.207Z,176.87
2019-03-31T00:10:31.706Z,232.77
2019-03-31T00:13:01.303Z,190.70
2019-03-31T00:15:30.931Z,190.00
2019-03-31T00:18:00.382Z,210.57
2019-03-31T00:20:29.945Z,168.40
2019-03-31T00:22:59.487Z,172.20
2019-03-31T00:25:28.943Z,184.00
2019-03-31T00:27:58.403Z,184.70
2019-03-31T00:30:27.881Z,168.17
2019-03-31T00:32:57.367Z,174.53
2019-03-31T00:35:26.837Z,172.73
2019-03-31T00:37:56.258Z,170.50
2019-03-31T00:40:25.741Z,203.97
2019-03-31T00:42:55.293Z,201.93
2019-03-31T00:45:24.811Z,185.33
2019-03-31T00:47:54.199Z,168.23
2019-03-31T00:50:23.997Z,172.00
2019-03-31T00:52:53.421Z,186.43
2019-03-31T00:55:22.910Z,175.80
2019-03-31T00:57:52.432Z,169.13
2019-03-31T01:00:25.076Z,173.90
2019-03-31T01:02:56.561Z,194.93
2019-03-31T01:05:26.187Z,169.57
2019-03-31T01:07:55.935Z,197.67
2019-03-31T01:10:25.545Z,172.83
2019-03-31T01:12:55.345Z,175.70
2019-03-31T01:15:25.137Z,166.07
2019-03-31T01:17:55.515Z,180.77
2019-03-31T01:20:25.111Z,185.93
2019-03-31T01:22:54.776Z,174.83
2019-03-31T01:25:24.718Z,173.40
2019-03-31T01:27:54.288Z,176.13
2019-03-31T01:30:23.900Z,173.83
2019-03-31T01:32:54.129Z,187.67
2019-03-31T01:35:23.752Z,168.10
2019-03-31T01:37:53.142Z,165.40
2019-03-31T01:40:22.706Z,159.37
2019-03-31T01:42:52.174Z,175.77
2019-03-31T01:45:21.832Z,164.37
2019-03-31T01:47:51.321Z,157.47
2019-03-31T01:50:21.382Z,167.93
2019-03-31T01:52:50.866Z,177.50
2019-03-31T01:55:20.306Z,172.00
2019-03-31T01:57:49.911Z,179.03
2019-03-31T02:00:21.065Z,164.43
2019-03-31T02:02:50.680Z,162.97
2019-03-31T02:05:20.259Z,179.47
2019-03-31T02:07:49.817Z,180.97
2019-03-31T02:10:19.351Z,172.13
2019-03-31T02:12:48.811Z,180.47
2019-03-31T02:15:18.267Z,172.23
2019-03-31T02:17:47.766Z,167.07
2019-03-31T02:20:17.207Z,174.97
2019-03-31T02:22:46.868Z,157.83
2019-03-31T02:25:16.436Z,159.43
2019-03-31T02:27:45.962Z,156.67
2019-03-31T02:30:16.181Z,160.07
2019-03-31T02:32:45.718Z,161.23
2019-03-31T02:35:15.303Z,169.20
2019-03-31T02:37:44.963Z,155.13
2019-03-31T02:40:14.509Z,157.23
2019-03-31T02:42:44.049Z,161.47
2019-03-31T02:45:14.051Z,165.57
2019-03-31T02:47:43.703Z,166.67
2019-03-31T02:50:16.520Z,189.20
2019-03-31T02:52:46.101Z,193.37
2019-03-31T02:55:15.838Z,173.13
2019-03-31T02:57:45.433Z,180.03
2019-03-31T03:00:15.421Z,179.90
2019-03-31T03:02:45.038Z,191.60
2019-03-31T03:05:19.579Z,205.20
2019-03-31T03:07:48.127Z,173.93
2019-03-31T03:10:19.593Z,185.37
2019-03-31T03:12:50.229Z,169.87
2019-03-31T03:15:22.804Z,185.60
2019-03-31T03:17:52.329Z,178.07
2019-03-31T03:20:22.791Z,181.23
2019-03-31T03:22:52.317Z,185.27
2019-03-31T03:25:21.738Z,174.77
2019-03-31T03:27:51.281Z,173.53
2019-03-31T03:30:20.908Z,179.40
2019-03-31T03:33:13.265Z,186.43
2019-03-31T03:35:21.904Z,184.40
2019-03-31T03:37:51.329Z,174.07
2019-03-31T03:40:20.855Z,175.37
2019-03-31T03:42:50.330Z,184.50
2019-03-31T03:45:19.839Z,175.63
2019-03-31T03:47:49.245Z,198.50
2019-03-31T03:50:18.738Z,182.23
2019-03-31T03:52:49.367Z,176.23
2019-03-31T03:55:18.852Z,171.03
2019-03-31T03:57:48.474Z,179.43
2019-03-31T04:00:18.570Z,171.53
2019-03-31T04:02:48.108Z,203.33
2019-03-31T04:05:17.573Z,190.43
2019-03-31T04:07:46.950Z,170.37
2019-03-31T04:10:19.463Z,179.67
2019-03-31T04:12:48.991Z,164.17
2019-03-31T04:15:18.488Z,168.17
2019-03-31T04:17:48.005Z,184.00
2019-03-31T04:20:17.412Z,189.73
2019-03-31T04:22:46.952Z,184.17
2019-03-31T04:25:16.520Z,174.93
2019-03-31T04:27:45.920Z,165.97
2019-03-31T04:30:15.458Z,184.60
2019-03-31T04:32:44.905Z,175.83
2019-03-31T04:35:14.361Z,223.63
2019-03-31T04:37:43.841Z,183.60
2019-03-31T04:40:13.429Z,167.00
2019-03-31T04:42:42.963Z,172.13
2019-03-31T04:45:12.660Z,162.50
2019-03-31T04:47:42.137Z,166.60
2019-03-31T04:50:11.874Z,165.57
2019-03-31T04:52:41.469Z,162.90
2019-03-31T04:55:10.947Z,160.37
2019-03-31T04:57:40.426Z,160.40
2019-03-31T05:00:10.228Z,179.73
2019-03-31T05:02:39.731Z,161.97
2019-03-31T05:05:09.303Z,156.67
2019-03-31T05:07:39.914Z,159.83
2019-03-31T05:10:09.687Z,166.43
2019-03-31T05:12:39.240Z,148.03
2019-03-31T05:15:08.955Z,160.47
2019-03-31T05:17:38.460Z,145.87
2019-03-31T05:20:07.992Z,145.30
2019-03-31T05:22:37.532Z,162.20
2019-03-31T05:25:07.199Z,143.50
2019-03-31T05:27:36.695Z,152.17
2019-03-31T05:30:07.385Z,154.30
2019-03-31T05:32:36.967Z,146.50
2019-03-31T05:35:06.727Z,137.03
2019-03-31T05:37:49.961Z,144.40
2019-03-31T05:40:08.516Z,149.30
2019-03-31T05:42:39.147Z,173.93
2019-03-31T05:45:08.845Z,159.53
2019-03-31T05:47:38.862Z,144.63
2019-03-31T05:50:08.465Z,131.87
2019-03-31T05:52:38.510Z,133.47
2019-03-31T05:55:08.298Z,147.57
2019-03-31T05:57:37.777Z,132.13
2019-03-31T06:00:07.944Z,143.53
2019-03-31T06:02:37.506Z,160.00
2019-03-31T06:05:07.436Z,139.00
2019-03-31T06:07:36.963Z,132.83
2019-03-31T06:10:07.511Z,130.80
2019-03-31T06:12:37.034Z,170.03
2019-03-31T06:15:06.826Z,154.47
2019-03-31T06:17:36.292Z,172.03
2019-03-31T06:20:07.278Z,140.13
2019-03-31T06:22:36.840Z,154.20
2019-03-31T06:25:08.886Z,165.50
2019-03-31T06:27:38.283Z,160.13
2019-03-31T06:30:08.659Z,178.53
2019-03-31T06:32:38.103Z,138.53
2019-03-31T06:35:07.713Z,147.47
2019-03-31T06:37:38.863Z,178.80
2019-03-31T06:40:08.687Z,164.43
2019-03-31T06:42:38.165Z,141.20
2019-03-31T06:45:07.922Z,128.67
2019-03-31T06:47:37.353Z,134.33
2019-03-31T06:50:08.601Z,128.33
2019-03-31T06:52:38.020Z,141.33
2019-03-31T06:55:09.820Z,130.07
2019-03-31T06:57:39.304Z,135.57
2019-03-31T07:00:09.417Z,120.93
2019-03-31T07:02:39.203Z,107.80
2019-03-31T07:05:08.704Z,123.07
2019-03-31T07:07:38.168Z,149.20
2019-03-31T07:10:08.371Z,135.50
2019-03-31T07:12:37.855Z,131.77
2019-03-31T07:15:08.584Z,122.03
2019-03-31T07:17:38.036Z,114.13
2019-03-31T07:20:09.997Z,116.97
2019-03-31T07:22:39.521Z,126.53
2019-03-31T07:25:10.476Z,126.10
2019-03-31T07:27:39.929Z,128.67
2019-03-31T07:30:12.771Z,114.67
2019-03-31T07:32:42.270Z,121.07
2019-03-31T07:35:18.209Z,138.27
2019-03-31T07:37:47.608Z,176.00
2019-03-31T07:40:20.099Z,176.47
2019-03-31T07:42:51.228Z,114.63
2019-03-31T07:45:22.092Z,137.97
2019-03-31T07:47:51.475Z,122.93
2019-03-31T07:50:21.029Z,152.77
2019-03-31T07:52:50.545Z,154.97
2019-03-31T07:55:20.181Z,194.70
2019-03-31T07:57:49.671Z,160.37
2019-03-31T08:00:22.147Z,257.00
2019-03-31T08:02:51.761Z,171.03
2019-03-31T08:05:32.331Z,135.27
2019-03-31T08:07:52.485Z,105.83
2019-03-31T08:10:22.295Z,103.00
2019-03-31T08:12:51.673Z,93.40
2019-03-31T08:15:21.133Z,96.73
2019-03-31T08:17:50.575Z,91.40
2019-03-31T08:20:20.288Z,88.67
2019-03-31T08:22:49.817Z,103.90
2019-03-31T08:25:20.930Z,96.40
2019-03-31T08:27:50.319Z,105.03
2019-03-31T08:30:20.711Z,90.47
2019-03-31T08:32:50.100Z,107.83
2019-03-31T08:35:19.596Z,100.50
2019-03-31T08:37:48.988Z,109.43
2019-03-31T08:40:18.715Z,84.93
2019-03-31T08:42:49.122Z,91.90
2019-03-31T08:45:18.667Z,76.47
2019-03-31T08:47:48.033Z,75.43
2019-03-31T08:50:18.657Z,73.73
2019-03-31T08:52:48.030Z,70.60
2019-03-31T08:55:18.714Z,74.33
2019-03-31T08:57:48.099Z,78.57
2019-03-31T09:00:19.570Z,56.07
2019-03-31T09:02:48.954Z,57.53
2019-03-31T09:05:18.404Z,58.77
2019-03-31T09:07:47.755Z,58.00
2019-03-31T09:10:17.681Z,60.80
2019-03-31T09:12:48.597Z,59.13
2019-03-31T09:15:18.555Z,63.17
2019-03-31T09:17:48.964Z,64.30
2019-03-31T09:20:18.968Z,60.70
2019-03-31T09:22:49.512Z,59.57
2019-03-31T09:25:19.212Z,61.50
2019-03-31T09:27:49.757Z,53.47
2019-03-31T09:30:19.474Z,49.67
2019-03-31T09:32:49.109Z,50.33
2019-03-31T09:35:18.933Z,53.53
2019-03-31T09:37:48.472Z,50.33
2019-03-31T09:40:18.264Z,50.67
2019-03-31T09:42:47.808Z,52.03
2019-03-31T09:45:18.528Z,54.58
2019-03-31T09:47:48.191Z,39.23
2019-03-31T09:50:17.930Z,42.17
2019-03-31T09:52:47.476Z,38.67
2019-03-31T09:55:17.056Z,38.70
2019-03-31T09:57:46.643Z,35.63
2019-03-31T10:00:19.237Z,31.47
2019-03-31T10:02:48.694Z,30.92
2019-03-31T10:05:18.289Z,33.57
2019-03-31T10:07:48.068Z,34.27
2019-03-31T10:10:20.646Z,36.53
2019-03-31T10:12:50.053Z,35.33
2019-03-31T10:15:19.511Z,36.50
2019-03-31T10:17:49.027Z,30.60
2019-03-31T10:20:18.562Z,52.67
2019-03-31T10:22:47.978Z,29.12
2019-03-31T10:25:17.438Z,29.00
2019-03-31T10:27:48.004Z,28.30
2019-03-31T10:30:20.682Z,27.80
2019-03-31T10:32:50.113Z,32.42
2019-03-31T10:35:19.792Z,32.15
2019-03-31T10:37:49.549Z,27.73
2019-03-31T10:40:19.109Z,28.62
2019-03-31T10:42:48.714Z,35.33
2019-03-31T10:45:18.320Z,29.85
2019-03-31T10:47:48.045Z,27.87
2019-03-31T10:50:17.807Z,27.63
2019-03-31T10:52:47.341Z,26.42
2019-03-31T10:55:16.978Z,25.55
2019-03-31T10:57:46.605Z,24.73
2019-03-31T11:00:19.204Z,25.43
2019-03-31T11:02:49.073Z,24.92
2019-03-31T11:05:18.792Z,29.93
2019-03-31T11:07:48.230Z,27.02
2019-03-31T11:10:17.717Z,23.95
2019-03-31T11:12:47.155Z,22.32
2019-03-31T11:15:16.572Z,29.25
2019-03-31T11:17:45.945Z,23.47
2019-03-31T11:20:15.390Z,28.85
2019-03-31T11:22:46.413Z,23.00
2019-03-31T11:25:21.287Z,19.48
2019-03-31T11:27:47.105Z,18.52
2019-03-31T11:30:17.106Z,24.60
2019-03-31T11:32:46.495Z,20.92
2019-03-31T11:35:15.867Z,22.37
2019-03-31T11:37:45.254Z,25.00
2019-03-31T11:40:14.910Z,23.45
2019-03-31T11:42:44.425Z,20.10
2019-03-31T11:45:14.239Z,20.08
2019-03-31T11:47:43.829Z,21.05
2019-03-31T11:50:13.530Z,22.52
2019-03-31T11:52:44.067Z,23.67
2019-03-31T11:55:13.648Z,19.70
2019-03-31T11:57:43.051Z,26.85
2019-03-31T12:00:14.679Z,28.87
2019-03-31T12:02:44.108Z,24.82
2019-03-31T12:05:14.454Z,22.20
2019-03-31T12:07:46.981Z,21.05
2019-03-31T12:10:19.684Z,24.72
2019-03-31T12:12:47.735Z,28.40
2019-03-31T12:15:17.278Z,22.77
2019-03-31T12:17:46.699Z,21.37
2019-03-31T12:20:16.591Z,24.72
2019-03-31T12:22:46.159Z,21.90
2019-03-31T12:25:15.587Z,20.90
2019-03-31T12:27:44.956Z,22.07
2019-03-31T12:30:17.397Z,24.95
2019-03-31T12:32:46.775Z,26.68
2019-03-31T12:35:17.218Z,23.02
2019-03-31T12:37:46.808Z,26.07
2019-03-31T12:40:19.384Z,36.47
2019-03-31T12:42:49.006Z,24.65
2019-03-31T12:45:18.488Z,27.02
2019-03-31T12:47:47.932Z,22.95
2019-03-31T12:50:17.493Z,23.02
2019-03-31T12:52:50.938Z,27.07
2019-03-31T12:55:18.073Z,23.70
2019-03-31T12:57:47.576Z,32.35
2019-03-31T13:00:17.355Z,22.62
2019-03-31T13:02:46.874Z,24.30
2019-03-31T13:05:16.398Z,24.65
2019-03-31T13:07:56.090Z,23.18
2019-03-31T13:10:17.151Z,25.63
2019-03-31T13:12:46.669Z,23.75
2019-03-31T13:15:16.257Z,26.37
2019-03-31T13:17:45.726Z,34.50
2019-03-31T13:20:15.426Z,25.82
2019-03-31T13:22:45.985Z,25.05
2019-03-31T13:25:15.664Z,30.77
2019-03-31T13:27:45.084Z,31.85
2019-03-31T13:30:15.151Z,24.98
2019-03-31T13:32:44.645Z,22.87
2019-03-31T13:35:14.320Z,24.43
2019-03-31T13:37:43.716Z,24.55
2019-03-31T13:40:13.528Z,30.00
2019-03-31T13:42:43.143Z,23.90
2019-03-31T13:45:13.651Z,25.48
2019-03-31T13:47:43.269Z,21.90
2019-03-31T13:50:14.358Z,27.37
2019-03-31T13:52:43.849Z,25.40
2019-03-31T13:55:13.556Z,21.95
2019-03-31T13:57:44.327Z,26.75
2019-03-31T14:00:25.152Z,27.55
2019-03-31T14:02:49.456Z,25.52
2019-03-31T14:05:18.971Z,28.23
2019-03-31T14:07:48.494Z,28.07
2019-03-31T14:10:18.230Z,30.40
2019-03-31T14:12:47.892Z,29.85
2019-03-31T14:15:19.517Z,27.93
2019-03-31T14:17:48.585Z,29.30
2019-03-31T14:20:18.134Z,25.25
2019-03-31T14:22:47.605Z,31.10
2019-03-31T14:25:17.071Z,32.33
2019-03-31T14:27:46.522Z,29.10
2019-03-31T14:30:16.249Z,27.10
2019-03-31T14:32:45.778Z,27.70
2019-03-31T14:35:15.372Z,31.17
2019-03-31T14:37:44.862Z,27.32
2019-03-31T14:40:14.413Z,29.23
2019-03-31T14:42:45.110Z,29.40
2019-03-31T14:45:17.706Z,31.60
2019-03-31T14:47:47.203Z,30.52
2019-03-31T14:50:19.797Z,25.43
2019-03-31T14:52:49.235Z,27.77
2019-03-31T14:55:18.741Z,23.45
2019-03-31T14:57:48.206Z,27.20
2019-03-31T15:00:17.871Z,25.10
2019-03-31T15:02:47.453Z,28.17
2019-03-31T15:05:16.885Z,28.90
2019-03-31T15:07:46.478Z,29.67
2019-03-31T15:10:16.036Z,32.85
2019-03-31T15:12:45.629Z,31.20
2019-03-31T15:15:15.121Z,31.97
2019-03-31T15:17:44.549Z,31.20
2019-03-31T15:20:14.357Z,33.90
2019-03-31T15:22:43.966Z,30.77
2019-03-31T15:25:13.576Z,30.90
2019-03-31T15:27:43.213Z,33.37
2019-03-31T15:30:12.975Z,31.13
2019-03-31T15:32:42.498Z,35.77
2019-03-31T15:35:12.044Z,34.97
2019-03-31T15:37:41.624Z,32.17
2019-03-31T15:40:12.187Z,33.90
2019-03-31T15:42:41.949Z,31.00
2019-03-31T15:45:11.453Z,35.00
2019-03-31T15:47:40.835Z,38.13
2019-03-31T15:50:10.363Z,34.60
2019-03-31T15:52:39.805Z,34.90
2019-03-31T15:55:10.283Z,34.00
2019-03-31T15:57:39.752Z,37.77
2019-03-31T16:00:10.354Z,35.17
2019-03-31T16:02:39.898Z,34.27
2019-03-31T16:05:12.567Z,36.30
2019-03-31T16:07:41.162Z,35.37
2019-03-31T16:10:10.790Z,34.53
2019-03-31T16:12:40.271Z,36.70
2019-03-31T16:15:10.339Z,35.07
2019-03-31T16:17:39.810Z,39.17
2019-03-31T16:20:09.815Z,37.43
2019-03-31T16:22:39.211Z,37.73
2019-03-31T16:25:10.530Z,43.00
2019-03-31T16:27:41.114Z,39.77
2019-03-31T16:30:30.276Z,38.63
2019-03-31T16:32:59.678Z,41.73
2019-03-31T16:35:29.101Z,41.40
2019-03-31T16:37:58.528Z,44.93
2019-03-31T16:40:27.966Z,41.87
2019-03-31T16:42:57.360Z,57.43
2019-03-31T16:45:26.738Z,39.53
2019-03-31T16:47:56.267Z,47.63
2019-03-31T16:50:25.837Z,45.97
2019-03-31T16:52:55.472Z,46.90
2019-03-31T16:55:26.506Z,47.97
2019-03-31T16:57:56.047Z,48.57
2019-03-31T17:00:25.702Z,45.40
2019-03-31T17:02:55.267Z,49.93
2019-03-31T17:05:25.184Z,51.40
2019-03-31T17:07:54.596Z,49.17
2019-03-31T17:10:24.056Z,49.60
2019-03-31T17:12:53.512Z,44.73
2019-03-31T17:15:22.988Z,39.47
2019-03-31T17:17:52.483Z,37.80
2019-03-31T17:20:22.367Z,34.50
2019-03-31T17:22:52.032Z,41.27
2019-03-31T17:25:21.502Z,38.03
2019-03-31T17:27:50.978Z,36.43
2019-03-31T17:30:20.704Z,39.07
2019-03-31T17:32:50.175Z,37.73
2019-03-31T17:35:19.601Z,38.30
2019-03-31T17:37:49.039Z,36.23
2019-03-31T17:40:18.743Z,29.60
2019-03-31T17:42:48.143Z,28.00
2019-03-31T17:45:17.672Z,25.53
2019-03-31T17:47:47.148Z,28.13
2019-03-31T17:50:16.961Z,26.47
2019-03-31T17:52:46.531Z,25.30
2019-03-31T17:55:16.070Z,23.37
2019-03-31T17:57:45.643Z,25.50
2019-03-31T18:00:15.650Z,19.03
2019-03-31T18:02:45.256Z,20.37
2019-03-31T18:05:14.818Z,19.07
2019-03-31T18:07:44.494Z,21.33
2019-03-31T18:10:20.788Z,23.03
2019-03-31T18:12:45.312Z,20.33
2019-03-31T18:15:15.175Z,20.50
2019-03-31T18:17:45.074Z,22.10
2019-03-31T18:20:14.803Z,21.23
2019-03-31T18:22:44.569Z,20.93
2019-03-31T18:25:14.080Z,11.33
2019-03-31T18:27:44.630Z,14.60
2019-03-31T18:30:14.601Z,15.20
2019-03-31T18:32:44.144Z,11.00
2019-03-31T18:35:16.634Z,10.77
2019-03-31T18:37:45.053Z,16.17
2019-03-31T18:40:14.732Z,12.77
2019-03-31T18:42:44.298Z,12.03
2019-03-31T18:45:14.108Z,14.80
2019-03-31T18:47:43.615Z,11.60
2019-03-31T18:50:13.302Z,14.83
2019-03-31T18:52:42.920Z,13.77
2019-03-31T18:55:14.452Z,14.53
2019-03-31T18:57:45.608Z,11.37
2019-03-31T19:00:16.995Z,13.80
2019-03-31T19:02:48.774Z,14.17
2019-03-31T19:05:19.924Z,17.50
2019-03-31T19:07:52.299Z,18.57
2019-03-31T19:10:24.786Z,17.20
2019-03-31T19:12:58.078Z,14.43
2019-03-31T19:15:29.110Z,14.77
2019-03-31T19:18:00.396Z,12.67
2019-03-31T19:20:31.515Z,9.73
2019-03-31T19:23:02.969Z,14.87
2019-03-31T19:25:34.078Z,13.13
2019-03-31T19:28:05.199Z,15.70
2019-03-31T19:30:36.193Z,15.27
2019-03-31T19:33:07.313Z,14.90
2019-03-31T19:35:38.439Z,13.27
2019-03-31T19:38:09.563Z,13.30
2019-03-31T19:40:41.550Z,12.70
2019-03-31T19:43:13.083Z,15.80
2019-03-31T19:45:44.244Z,20.57
2019-03-31T19:48:16.522Z,17.20
2019-03-31T19:50:47.623Z,17.00
2019-03-31T19:53:18.799Z,15.43
2019-03-31T19:55:49.928Z,15.50
2019-03-31T19:58:21.073Z,15.40
2019-03-31T20:00:53.276Z,15.33
2019-03-31T20:03:24.468Z,14.97
2019-03-31T20:05:55.668Z,19.70
2019-03-31T20:08:26.968Z,21.20
2019-03-31T20:10:56.343Z,20.40
2019-03-31T20:13:27.501Z,23.57
2019-03-31T20:15:58.622Z,12.90
2019-03-31T20:18:29.890Z,12.90
2019-03-31T20:21:00.974Z,11.77
2019-03-31T20:23:32.195Z,14.83
2019-03-31T20:26:03.294Z,14.13
2019-03-31T20:28:34.414Z,14.37
2019-03-31T20:31:05.586Z,12.43
2019-03-31T20:33:34.911Z,10.27
2019-03-31T20:36:06.109Z,10.73
2019-03-31T20:38:37.345Z,12.70
2019-03-31T20:41:06.872Z,11.90
2019-03-31T20:43:53.879Z,13.83
2019-03-31T20:46:25.410Z,12.50
2019-03-31T20:48:55.004Z,16.97
2019-03-31T20:51:26.318Z,24.53
2019-03-31T20:53:56.020Z,14.67
2019-03-31T20:56:26.185Z,13.10
2019-03-31T20:58:55.731Z,16.60
2019-03-31T21:01:26.338Z,39.50
2019-03-31T21:03:56.453Z,14.20
2019-03-31T21:06:26.087Z,43.30
2019-03-31T21:08:55.597Z,36.87
2019-03-31T21:11:25.036Z,18.00
2019-03-31T21:13:56.986Z,19.23
2019-03-31T21:16:25.670Z,12.43
2019-03-31T21:18:55.136Z,24.57
2019-03-31T21:21:24.601Z,12.40
2019-03-31T21:23:54.163Z,16.27
2019-03-31T21:26:23.544Z,18.23
2019-03-31T21:29:05.861Z,15.53
2019-03-31T21:31:35.415Z,9.60
2019-03-31T21:34:04.853Z,12.17
2019-03-31T21:36:34.317Z,18.07
2019-03-31T21:39:05.769Z,13.37
2019-03-31T21:41:35.668Z,16.33
2019-03-31T21:44:05.286Z,16.47
2019-03-31T21:46:34.828Z,13.97
2019-03-31T21:49:04.451Z,13.97
2019-03-31T21:51:34.021Z,9.97
2019-03-31T21:54:03.719Z,9.00
2019-03-31T21:56:33.204Z,7.93
2019-03-31T21:59:03.847Z,20.87
2019-03-31T22:01:33.452Z,11.53
2019-03-31T22:04:03.572Z,9.07
2019-03-31T22:06:33.020Z,12.30
2019-03-31T22:09:02.951Z,7.63
2019-03-31T22:11:34.145Z,9.33
2019-03-31T22:14:03.597Z,10.67
2019-03-31T22:16:32.975Z,8.67
2019-03-31T22:19:02.464Z,12.67
2019-03-31T22:21:32.015Z,7.83
2019-03-31T22:24:01.572Z,8.67
2019-03-31T22:26:31.044Z,11.23
2019-03-31T22:29:00.633Z,9.67
2019-03-31T22:31:30.079Z,7.40
2019-03-31T22:33:59.527Z,10.13
2019-03-31T22:36:29.048Z,12.33
2019-03-31T22:38:58.550Z,9.00
2019-03-31T22:41:28.087Z,8.37
2019-03-31T22:43:57.615Z,10.43
2019-03-31T22:46:27.069Z,7.87
2019-03-31T22:48:56.528Z,10.20
2019-03-31T22:51:26.051Z,9.10
2019-03-31T22:53:55.475Z,12.53
2019-03-31T22:56:25.012Z,15.90
2019-03-31T22:58:54.497Z,15.10
2019-03-31T23:01:24.111Z,16.43
2019-03-31T23:03:53.586Z,11.77
2019-03-31T23:06:23.139Z,13.13
2019-03-31T23:08:52.638Z,12.20
2019-03-31T23:11:22.021Z,12.40
2019-03-31T23:13:51.435Z,13.37
2019-03-31T23:16:21.050Z,9.70
2019-03-31T23:18:50.412Z,13.93
2019-03-31T23:21:20.045Z,11.63
2019-03-31T23:23:49.478Z,14.70
2019-03-31T23:26:19.031Z,10.83
2019-03-31T23:28:48.504Z,13.13
2019-03-31T23:31:18.062Z,10.40
2019-03-31T23:33:48.575Z,10.87
2019-03-31T23:36:18.197Z,13.00
2019-03-31T23:38:47.652Z,12.00
2019-03-31T23:41:17.052Z,9.47
2019-03-31T23:43:46.508Z,13.03
2019-03-31T23:46:15.977Z,88.03
2019-03-31T23:48:45.526Z,195.63
2019-03-31T23:51:15.035Z,227.63
2019-03-31T23:53:44.552Z,23.20
2019-03-31T23:56:14.043Z,11.00
2019-03-31T23:58:43.551Z,11.73
